Time;durP1;ratioP1;P1;durP2;ratioP2;P2;SDS_P1;SDS_P2;PMS_P1;PMS_P2;Temp;Humidity;BMP_temperature;BMP_pressure;BME280_temperature;BME280_humidity;BME280_pressure;Samples;Min_cycle;Max_cycle;Signal;HPM_P1;HPM_P2
2023/06/30 00:01:21;;;;;;;;;24.00;24.00;;;;;23.64;54.56;100415.79;110177;1265;18749;-40
2023/06/30 00:03:49;;;;;;;;;25.00;25.00;;;;;23.63;54.49;100412.66;110208;1260;20792;-40
2023/06/30 00:06:16;;;;;;;;;25.00;24.00;;;;;23.64;54.55;100412.96;110167;1265;18973;-40
2023/06/30 00:08:44;;;;;;;;;25.00;24.00;;;;;23.62;54.79;100409.75;110219;1265;18876;-40
2023/06/30 00:11:11;;;;;;;;;25.00;25.00;;;;;23.62;54.74;100404.31;110216;1265;19343;-41
2023/06/30 00:13:38;;;;;;;;;27.50;26.00;;;;;23.58;54.95;100405.55;110211;1250;18640;-40
2023/06/30 00:16:06;;;;;;;;;26.00;24.00;;;;;23.56;55.11;100405.75;110200;1265;22364;-40
2023/06/30 00:18:33;;;;;;;;;28.00;28.00;;;;;23.57;55.07;100404.36;110184;1250;22174;-40
2023/06/30 00:21:01;;;;;;;;;27.00;25.00;;;;;23.54;54.94;100404.80;110213;1260;18716;-40
2023/06/30 00:23:28;;;;;;;;;28.00;28.00;;;;;23.48;55.31;100410.84;110208;1265;18865;-40
2023/06/30 00:25:56;;;;;;;;;25.00;24.00;;;;;23.52;55.28;100410.45;110206;1251;20811;-40
2023/06/30 00:28:23;;;;;;;;;;;;;;;23.49;55.37;100407.39;110226;1251;20018;-40
2023/06/30 00:30:51;;;;;;;;;28.00;27.50;;;;;23.49;55.35;100408.19;110111;1251;19976;-39
2023/06/30 00:33:18;;;;;;;;;30.00;29.00;;;;;23.44;55.70;100407.66;110197;1251;20854;-39
2023/06/30 00:35:45;;;;;;;;;33.00;29.33;;;;;23.42;55.64;100408.58;110211;1251;22751;-40
2023/06/30 00:38:12;;;;;;;;;34.50;30.00;;;;;23.33;56.05;100408.87;110192;1265;18752;-40
2023/06/30 00:40:40;;;;;;;;;28.33;28.00;;;;;23.37;56.06;100406.79;110173;1251;20998;-40
2023/06/30 00:43:07;;;;;;;;;31.00;31.00;;;;;23.43;55.62;100404.92;110198;1251;20009;-40
2023/06/30 00:45:34;;;;;;;;;32.00;31.00;;;;;23.31;55.81;100401.11;110198;1251;20073;-40
2023/06/30 00:48:02;;;;;;;;;33.00;33.00;;;;;23.25;56.13;100402.64;110188;1251;20804;-39
2023/06/30 00:50:29;;;;;;;;;40.00;34.50;;;;;23.29;55.78;100396.02;110220;1265;18934;-40
2023/06/30 00:52:56;;;;;;;;;35.00;32.00;;;;;23.34;55.39;100397.89;110182;1251;20181;-39
2023/06/30 00:55:24;;;;;;;;;39.00;34.00;;;;;23.32;55.42;100392.80;110208;1259;20897;-40
2023/06/30 00:57:51;;;;;;;;;35.00;34.00;;;;;23.29;55.20;100390.29;109843;1251;490071;-40
2023/06/30 01:00:19;;;;;;;;;33.67;31.67;;;;;23.29;55.36;100383.70;110171;1251;20186;-40
2023/06/30 01:02:46;;;;;;;;;29.67;28.00;;;;;23.24;55.30;100386.35;110204;1265;19852;-40
2023/06/30 01:05:14;;;;;;;;;31.50;29.00;;;;;23.22;55.19;100380.95;110188;1260;21176;-40
2023/06/30 01:07:41;;;;;;;;;33.50;30.50;;;;;23.16;55.47;100378.36;110165;1251;21087;-40
2023/06/30 01:10:09;;;;;;;;;32.00;31.00;;;;;23.24;55.12;100381.48;110216;1250;20996;-39
2023/06/30 01:12:37;;;;;;;;;28.50;28.50;;;;;23.22;55.08;100381.66;110196;1265;18570;-38
2023/06/30 01:15:05;;;;;;;;;29.00;27.00;;;;;23.16;55.22;100378.10;110207;1265;18834;-39
2023/06/30 01:17:32;;;;;;;;;32.00;32.00;;;;;23.14;55.46;100376.16;110161;1265;19744;-38
2023/06/30 01:19:59;;;;;;;;;37.00;33.00;;;;;23.01;55.51;100376.85;110209;1265;18572;-39
2023/06/30 01:22:27;;;;;;;;;35.00;35.00;;;;;22.99;55.67;100375.44;110167;1265;18903;-40
2023/06/30 01:24:54;;;;;;;;;34.00;31.00;;;;;22.97;55.63;100373.23;110185;1265;19364;-39
2023/06/30 01:27:21;;;;;;;;;39.50;35.50;;;;;23.04;55.32;100373.20;110208;1251;20004;-39
2023/06/30 01:29:49;;;;;;;;;31.00;31.00;;;;;22.96;55.49;100367.21;110201;1265;18664;-38
2023/06/30 01:32:16;;;;;;;;;37.50;35.50;;;;;23.02;55.13;100371.11;110192;1265;19423;-39
2023/06/30 01:34:44;;;;;;;;;44.00;41.00;;;;;23.04;54.87;100366.02;110181;1251;20056;-39
2023/06/30 01:37:11;;;;;;;;;40.00;39.00;;;;;22.96;55.02;100360.27;110214;1265;20177;-40
2023/06/30 01:39:40;;;;;;;;;38.00;36.00;;;;;22.93;55.23;100359.70;110228;1251;20696;-39
2023/06/30 01:42:07;;;;;;;;;36.00;34.00;;;;;22.98;55.06;100360.79;110189;1251;20067;-39
2023/06/30 01:44:34;;;;;;;;;43.50;38.50;;;;;22.88;55.24;100362.58;110235;1265;18731;-39
2023/06/30 01:47:02;;;;;;;;;40.00;37.00;;;;;22.89;55.27;100365.18;110220;1266;22800;-40
2023/06/30 01:49:29;;;;;;;;;40.50;38.00;;;;;22.97;54.72;100366.20;110188;1251;22203;-38
2023/06/30 01:51:56;;;;;;;;;43.00;37.50;;;;;22.94;54.67;100365.09;110194;1249;21783;-39
2023/06/30 01:54:24;;;;;;;;;43.00;39.00;;;;;22.94;54.77;100364.55;110190;1251;22251;-39
2023/06/30 01:56:51;;;;;;;;;40.00;37.00;;;;;22.98;54.72;100362.55;110207;1251;20143;-39
2023/06/30 01:59:18;;;;;;;;;40.00;37.67;;;;;23.00;54.50;100363.82;110192;1251;22873;-39
2023/06/30 02:01:45;;;;;;;;;43.00;40.50;;;;;22.92;54.76;100360.84;110202;1265;20744;-40
2023/06/30 02:04:13;;;;;;;;;41.67;37.33;;;;;22.94;54.72;100360.91;110188;1257;18606;-39
2023/06/30 02:06:40;;;;;;;;;37.00;33.00;;;;;22.93;54.61;100360.59;110202;1265;18816;-39
2023/06/30 02:09:08;;;;;;;;;37.00;36.00;;;;;22.84;54.54;100366.36;110214;1257;22104;-39
2023/06/30 02:11:35;;;;;;;;;36.00;34.00;;;;;22.81;54.57;100363.96;110279;1260;19886;-39
2023/06/30 02:14:02;;;;;;;;;33.67;32.33;;;;;22.86;54.27;100363.64;110203;1251;21890;-38
2023/06/30 02:16:30;;;;;;;;;33.00;32.00;;;;;22.85;54.28;100365.19;110208;1265;19463;-38
2023/06/30 02:18:57;;;;;;;;;33.00;31.00;;;;;22.79;54.46;100362.27;110196;1265;22168;-39
2023/06/30 02:21:24;;;;;;;;;33.00;32.00;;;;;22.69;54.62;100356.62;110204;1251;20200;-39
2023/06/30 02:23:52;;;;;;;;;34.00;30.00;;;;;22.75;54.57;100361.02;110198;1265;20911;-39
2023/06/30 02:26:19;;;;;;;;;32.00;30.00;;;;;22.79;54.26;100351.19;110243;1251;22302;-39
2023/06/30 02:28:46;;;;;;;;;32.00;32.00;;;;;22.78;54.43;100353.65;110205;1251;20210;-39
2023/06/30 02:31:14;;;;;;;;;31.50;30.00;;;;;22.85;54.37;100345.81;110190;1260;20674;-39
2023/06/30 02:33:41;;;;;;;;;30.00;27.00;;;;;22.89;54.21;100344.59;110243;1265;20272;-39
2023/06/30 02:36:08;;;;;;;;;31.33;31.33;;;;;22.86;54.06;100343.12;110225;1265;22351;-40
2023/06/30 02:38:35;;;;;;;;;31.50;29.00;;;;;22.88;54.08;100346.96;110205;1265;20784;-39
2023/06/30 02:41:03;;;;;;;;;28.00;28.00;;;;;22.85;54.18;100344.38;110179;1265;18605;-39
2023/06/30 02:43:30;;;;;;;;;33.33;32.00;;;;;22.84;54.32;100345.11;110180;1265;22837;-39
2023/06/30 02:45:57;;;;;;;;;30.00;29.00;;;;;22.78;54.67;100340.06;110212;1251;20787;-39
2023/06/30 02:48:25;;;;;;;;;30.00;29.00;;;;;22.81;54.59;100332.58;110182;1251;20057;-38
2023/06/30 02:50:52;;;;;;;;;32.00;29.00;;;;;22.83;54.36;100330.40;110199;1251;20401;-39
2023/06/30 02:53:19;;;;;;;;;33.00;31.00;;;;;22.87;54.14;100329.17;110231;1259;20899;-41
2023/06/30 02:55:47;;;;;;;;;26.50;26.00;;;;;22.87;54.01;100331.23;110201;1251;21092;-39
2023/06/30 02:58:14;;;;;;;;;27.00;27.00;;;;;22.88;53.90;100329.03;110199;1265;18695;-39
2023/06/30 03:00:41;;;;;;;;;32.00;30.00;;;;;22.91;53.96;100325.23;110185;1251;22751;-39
2023/06/30 03:03:09;;;;;;;;;27.67;26.67;;;;;22.86;53.89;100326.60;110219;1251;20119;-39
2023/06/30 03:05:37;;;;;;;;;27.00;24.00;;;;;22.84;54.10;100327.59;110182;1260;20257;-39
2023/06/30 03:08:04;;;;;;;;;28.00;27.00;;;;;22.89;54.01;100326.42;110239;1265;19390;-39
2023/06/30 03:10:31;;;;;;;;;29.00;29.00;;;;;22.83;54.09;100324.64;110214;1265;19677;-39
2023/06/30 03:12:59;;;;;;;;;30.00;29.00;;;;;22.84;54.05;100323.64;110191;1265;18750;-40
2023/06/30 03:15:26;;;;;;;;;27.50;27.50;;;;;22.73;54.25;100327.77;110141;1251;21045;-40
2023/06/30 03:17:55;;;;;;;;;27.00;27.00;;;;;22.69;54.32;100327.05;110169;1265;20116;-40
2023/06/30 03:20:22;;;;;;;;;33.00;32.00;;;;;22.61;54.86;100325.88;110157;1265;18729;-39
2023/06/30 03:22:49;;;;;;;;;30.00;29.00;;;;;22.58;54.67;100334.64;110181;1251;20811;-40
2023/06/30 03:25:17;;;;;;;;;33.00;30.50;;;;;22.60;54.71;100327.98;110227;1265;18601;-39
2023/06/30 03:27:44;;;;;;;;;35.00;32.00;;;;;22.62;54.65;100331.48;110167;1249;22955;-40
2023/06/30 03:30:12;;;;;;;;;32.00;29.00;;;;;22.61;54.54;100334.54;110183;1251;22027;-39
2023/06/30 03:32:39;;;;;;;;;31.00;29.00;;;;;22.55;54.68;100337.02;110213;1251;20260;-39
2023/06/30 03:35:07;;;;;;;;;32.00;29.00;;;;;22.58;54.52;100341.48;110186;1265;23228;-40
2023/06/30 03:37:34;;;;;;;;;33.00;31.67;;;;;22.54;54.62;100337.26;110233;1265;19472;-40
2023/06/30 03:40:05;;;;;;;;;29.00;28.00;;;;;22.57;54.73;100333.96;110183;1266;18634;-39
2023/06/30 03:42:32;;;;;;;;;27.50;27.00;;;;;22.54;54.73;100330.95;110237;1251;21252;-39
2023/06/30 03:45:00;;;;;;;;;30.33;30.00;;;;;22.46;54.80;100333.44;110186;1251;21031;-39
2023/06/30 03:47:27;;;;;;;;;30.00;29.00;;;;;22.51;54.82;100330.80;110137;1265;18633;-40
2023/06/30 03:49:54;;;;;;;;;29.00;29.00;;;;;22.54;54.74;100328.60;110143;1251;18811;-39
2023/06/30 03:52:22;;;;;;;;;30.00;29.00;;;;;22.56;54.62;100331.27;110138;1251;22036;-37
2023/06/30 03:54:49;;;;;;;;;28.50;28.50;;;;;22.57;54.53;100327.95;110147;1265;18596;-38
2023/06/30 03:57:16;;;;;;;;;29.00;27.00;;;;;22.53;54.65;100325.98;110149;1259;18663;-37
2023/06/30 03:59:44;;;;;;;;;30.00;27.00;;;;;22.49;54.72;100324.27;110152;1265;19354;-38
2023/06/30 04:02:11;;;;;;;;;28.00;28.00;;;;;22.53;54.64;100325.27;110155;1260;19996;-39
2023/06/30 04:04:38;;;;;;;;;30.00;29.50;;;;;22.58;54.65;100323.41;110111;1265;20229;-37
2023/06/30 04:07:06;;;;;;;;;30.00;28.00;;;;;22.62;54.50;100314.24;110166;1265;22689;-39
2023/06/30 04:09:33;;;;;;;;;33.00;30.33;;;;;22.62;54.52;100317.14;110154;1251;21677;-40
2023/06/30 04:12:00;;;;;;;;;32.00;29.00;;;;;22.63;54.56;100318.78;110175;1265;19097;-37
2023/06/30 04:14:28;;;;;;;;;28.00;27.00;;;;;22.59;54.46;100316.87;110119;1250;21374;-38
2023/06/30 04:16:55;;;;;;;;;30.00;28.67;;;;;22.50;54.73;100322.52;110152;1265;18946;-37
2023/06/30 04:19:22;;;;;;;;;26.50;25.50;;;;;22.38;54.83;100322.98;110142;1265;18752;-37
2023/06/30 04:21:50;;;;;;;;;28.00;28.00;;;;;22.24;55.52;100320.41;110192;1259;20823;-39
2023/06/30 04:24:19;;;;;;;;;27.50;27.50;;;;;22.18;55.49;100315.54;110188;1251;22178;-39
2023/06/30 04:26:46;;;;;;;;;30.50;28.50;;;;;22.20;55.61;100312.45;110198;1250;20068;-39
2023/06/30 04:29:13;;;;;;;;;29.00;28.00;;;;;22.31;55.38;100313.95;110160;1265;20699;-40
2023/06/30 04:31:41;;;;;;;;;26.00;26.00;;;;;22.27;55.55;100312.25;110246;1265;22370;-39
2023/06/30 04:34:08;;;;;;;;;26.00;25.00;;;;;22.39;55.30;100307.43;110233;1265;18927;-39
2023/06/30 04:36:35;;;;;;;;;27.00;25.00;;;;;22.33;55.35;100310.94;110084;1251;20982;-38
2023/06/30 04:39:03;;;;;;;;;28.33;27.67;;;;;22.36;55.11;100314.39;110265;1251;19990;-38
2023/06/30 04:41:30;;;;;;;;;30.00;27.00;;;;;22.26;55.46;100313.88;110259;1259;20079;-38
2023/06/30 04:43:59;;;;;;;;;27.00;25.00;;;;;22.31;55.49;100313.48;110263;1251;20572;-38
2023/06/30 04:46:27;;;;;;;;;28.50;27.00;;;;;22.54;55.20;100307.79;110257;1249;20051;-39
2023/06/30 04:48:55;;;;;;;;;29.00;28.00;;;;;22.69;55.17;100309.21;110231;1251;20323;-38
2023/06/30 04:51:23;;;;;;;;;31.50;30.00;;;;;22.49;55.52;100302.67;110196;1251;20933;-39
2023/06/30 04:53:50;;;;;;;;;31.00;29.00;;;;;22.31;55.93;100304.01;110223;1265;18572;-39
2023/06/30 04:56:17;;;;;;;;;29.00;26.00;;;;;22.41;55.70;100302.58;110200;1266;19251;-39
2023/06/30 04:58:44;;;;;;;;;28.50;28.50;;;;;22.39;55.91;100303.02;110206;1265;19339;-39
2023/06/30 05:01:12;;;;;;;;;38.00;29.00;;;;;22.38;56.44;100306.71;110232;1265;18596;-39
2023/06/30 05:03:39;;;;;;;;;35.00;32.00;;;;;22.50;56.70;100304.70;110192;1265;20156;-38
2023/06/30 05:06:07;;;;;;;;;33.00;29.50;;;;;22.61;56.51;100302.16;110206;1265;19301;-40
2023/06/30 05:08:34;;;;;;;;;28.00;28.00;;;;;22.56;56.74;100303.52;110193;1250;20248;-39
2023/06/30 05:11:01;;;;;;;;;33.00;31.00;;;;;22.64;56.68;100302.52;110209;1265;18796;-39
2023/06/30 05:13:29;;;;;;;;;28.00;25.00;;;;;22.66;56.60;100306.41;110201;1265;21002;-40
2023/06/30 05:15:56;;;;;;;;;29.00;25.00;;;;;22.84;56.10;100307.25;110200;1265;20280;-40
2023/06/30 05:18:23;;;;;;;;;30.00;29.00;;;;;22.90;56.31;100308.52;110220;1261;20371;-40
2023/06/30 05:20:51;;;;;;;;;38.00;33.50;;;;;22.88;56.70;100308.89;110188;1265;20778;-39
2023/06/30 05:23:18;;;;;;;;;48.00;44.00;;;;;22.89;56.75;100312.56;110185;1251;18768;-40
2023/06/30 05:25:45;;;;;;;;;128.00;110.00;;;;;22.90;56.60;100308.60;110187;1265;20159;-40
2023/06/30 05:28:13;;;;;;;;;95.00;73.00;;;;;22.89;57.36;100309.02;110225;1251;22239;-41
2023/06/30 05:30:40;;;;;;;;;73.50;59.50;;;;;22.92;58.03;100307.54;110232;1251;22264;-41
2023/06/30 05:33:07;;;;;;;;;51.50;43.00;;;;;22.97;57.83;100306.02;110236;1249;21387;-41
2023/06/30 05:35:35;;;;;;;;;45.50;38.00;;;;;22.88;57.70;100306.31;110193;1265;22881;-41
2023/06/30 05:38:02;;;;;;;;;43.00;36.00;;;;;22.83;57.56;100309.16;110193;1265;19988;-40
2023/06/30 05:40:30;;;;;;;;;34.00;30.00;;;;;22.93;56.94;100307.15;110163;1265;18729;-41
2023/06/30 05:42:57;;;;;;;;;36.00;34.00;;;;;23.00;56.79;100308.55;110232;1257;23531;-39
2023/06/30 05:45:25;;;;;;;;;32.00;31.50;;;;;22.99;56.91;100305.29;110204;1251;20070;-37
2023/06/30 05:47:52;;;;;;;;;30.50;28.00;;;;;23.05;56.75;100301.88;110184;1265;18904;-39
2023/06/30 05:50:21;;;;;;;;;26.67;26.00;;;;;23.04;56.62;100302.59;110198;1257;20752;-41
2023/06/30 05:52:49;;;;;;;;;31.00;31.00;;;;;23.06;56.59;100304.16;110168;1265;18582;-40
2023/06/30 05:55:16;;;;;;;;;27.00;26.00;;;;;23.05;56.41;100304.41;110208;1249;20242;-41
2023/06/30 05:57:44;;;;;;;;;35.00;28.50;;;;;23.02;56.68;100306.58;110226;1251;20645;-39
2023/06/30 06:00:11;;;;;;;;;29.00;26.00;;;;;23.04;56.48;100307.26;110198;1266;20446;-39
2023/06/30 06:02:38;;;;;;;;;30.00;27.67;;;;;23.06;56.47;100310.80;110224;1250;21393;-40
2023/06/30 06:05:06;;;;;;;;;27.00;26.00;;;;;23.08;56.58;100309.09;110230;1251;20922;-40
2023/06/30 06:07:34;;;;;;;;;40.00;37.00;;;;;23.06;56.85;100302.98;110245;1250;20124;-38
2023/06/30 06:10:01;;;;;;;;;33.50;30.50;;;;;23.05;56.94;100304.75;110240;1265;20364;-40
2023/06/30 06:12:29;;;;;;;;;26.00;26.00;;;;;23.05;56.94;100301.20;110211;1265;20932;-39
2023/06/30 06:14:56;;;;;;;;;32.50;31.00;;;;;23.10;56.79;100296.10;110204;1265;18936;-39
2023/06/30 06:17:24;;;;;;;;;33.00;31.00;;;;;23.06;56.99;100294.10;110201;1265;20085;-39
2023/06/30 06:19:51;;;;;;;;;31.00;30.00;;;;;23.05;57.18;100301.37;110198;1249;20684;-41
2023/06/30 06:22:19;;;;;;;;;32.00;30.00;;;;;23.03;57.39;100302.33;110163;1265;18527;-40
2023/06/30 06:24:46;;;;;;;;;30.00;29.00;;;;;23.03;57.48;100300.98;110197;1265;18660;-40
2023/06/30 06:27:13;;;;;;;;;30.50;27.00;;;;;23.02;57.85;100298.46;110155;1265;22680;-40
2023/06/30 06:29:41;;;;;;;;;30.50;29.50;;;;;23.06;57.91;100298.82;110181;1257;19835;-41
2023/06/30 06:32:08;;;;;;;;;30.50;28.50;;;;;23.08;57.92;100299.84;110245;1265;20185;-39
2023/06/30 06:34:36;;;;;;;;;30.50;26.50;;;;;23.07;57.98;100302.14;110223;1265;22206;-40
2023/06/30 06:37:03;;;;;;;;;29.00;27.00;;;;;23.07;57.89;100302.73;110209;1251;22616;-39
2023/06/30 06:39:30;;;;;;;;;29.50;27.50;;;;;23.08;58.05;100302.20;110235;1265;19129;-41
2023/06/30 06:41:58;;;;;;;;;25.00;24.67;;;;;23.10;58.13;100300.48;110205;1251;21112;-41
2023/06/30 06:44:25;;;;;;;;;29.00;27.50;;;;;23.09;58.21;100292.20;110209;1265;18789;-41
2023/06/30 06:46:52;;;;;;;;;29.00;28.00;;;;;23.11;58.21;100289.71;110221;1257;22711;-41
2023/06/30 06:49:20;;;;;;;;;47.00;44.00;;;;;23.14;58.14;100292.47;110199;1266;19676;-39
2023/06/30 06:51:47;;;;;;;;;38.50;33.50;;;;;23.11;58.36;100297.95;110164;1251;22591;-40
2023/06/30 06:54:15;;;;;;;;;31.00;31.00;;;;;23.11;58.22;100296.44;110189;1260;20165;-41
2023/06/30 06:56:42;;;;;;;;;31.00;30.00;;;;;23.17;58.03;100302.83;110186;1251;20733;-39
2023/06/30 06:59:09;;;;;;;;;32.00;29.00;;;;;23.15;58.11;100301.38;110183;1250;20206;-40
2023/06/30 07:01:37;;;;;;;;;27.00;26.00;;;;;23.14;58.30;100304.49;110203;1251;20150;-40
2023/06/30 07:04:04;;;;;;;;;32.50;27.50;;;;;23.18;58.18;100304.30;110187;1265;19283;-39
2023/06/30 07:06:32;;;;;;;;;24.00;24.00;;;;;23.20;58.31;100309.02;110230;1265;18642;-40
2023/06/30 07:08:59;;;;;;;;;30.00;28.00;;;;;23.25;58.20;100310.94;110196;1249;20404;-39
2023/06/30 07:11:26;;;;;;;;;30.00;28.00;;;;;23.28;58.13;100314.14;110231;1251;21030;-39
2023/06/30 07:13:54;;;;;;;;;30.00;28.00;;;;;23.24;58.50;100314.50;110170;1250;20365;-40
2023/06/30 07:16:21;;;;;;;;;31.00;30.50;;;;;23.26;58.51;100311.02;110220;1251;22111;-41
2023/06/30 07:18:49;;;;;;;;;26.00;24.00;;;;;23.25;58.62;100310.39;110243;1265;19464;-40
2023/06/30 07:21:16;;;;;;;;;33.50;30.50;;;;;23.25;58.77;100311.95;110246;1251;21611;-39
2023/06/30 07:23:44;;;;;;;;;46.00;40.00;;;;;23.26;59.08;100311.70;110320;1265;18761;-40
2023/06/30 07:26:11;;;;;;;;;38.00;34.00;;;;;23.22;59.32;100309.02;110207;1260;21482;-41
2023/06/30 07:28:39;;;;;;;;;38.00;35.00;;;;;23.23;59.13;100307.77;110245;1251;19974;-41
2023/06/30 07:31:06;;;;;;;;;34.00;32.00;;;;;23.26;59.08;100304.59;110218;1251;20510;-39
2023/06/30 07:33:33;;;;;;;;;32.50;28.50;;;;;23.23;59.37;100305.02;110179;1251;20752;-41
2023/06/30 07:36:01;;;;;;;;;34.00;33.00;;;;;23.22;59.51;100298.21;110162;1261;18585;-40
2023/06/30 07:38:28;;;;;;;;;27.00;27.00;;;;;23.22;59.54;100296.32;110140;1251;18622;-40
2023/06/30 07:40:56;;;;;;;;;30.50;30.00;;;;;23.24;59.67;100291.23;110244;1251;20967;-40
2023/06/30 07:43:23;;;;;;;;;31.00;27.00;;;;;23.28;59.69;100283.73;110231;1265;18614;-40
2023/06/30 07:45:50;;;;;;;;;35.00;30.00;;;;;23.22;59.56;100283.03;110224;1251;21514;-39
2023/06/30 07:48:18;;;;;;;;;30.00;28.00;;;;;23.12;59.94;100281.02;110185;1265;22079;-39
2023/06/30 07:50:45;;;;;;;;;30.50;29.00;;;;;23.13;60.03;100281.27;110178;1265;18587;-39
2023/06/30 07:53:12;;;;;;;;;30.00;29.00;;;;;23.11;60.02;100279.95;110179;1251;20099;-39
2023/06/30 07:55:40;;;;;;;;;32.00;30.00;;;;;23.11;60.11;100274.31;110196;1265;19310;-40
2023/06/30 07:58:07;;;;;;;;;31.50;28.00;;;;;23.14;59.98;100273.92;110178;1251;18781;-39
2023/06/30 08:00:34;;;;;;;;;33.50;29.00;;;;;23.12;59.81;100278.28;110274;1251;20519;-38
2023/06/30 08:03:02;;;;;;;;;31.00;29.00;;;;;23.11;59.84;100277.92;110272;1251;20851;-41
2023/06/30 08:05:29;;;;;;;;;27.00;26.33;;;;;23.14;59.96;100281.11;110204;1251;19970;-39
2023/06/30 08:07:57;;;;;;;;;27.00;27.00;;;;;23.14;60.19;100284.59;110194;1250;22415;-38
2023/06/30 08:10:24;;;;;;;;;30.00;27.00;;;;;23.17;60.34;100288.48;110246;1265;20714;-40
2023/06/30 08:12:51;;;;;;;;;30.00;27.00;;;;;23.17;60.56;100289.45;110263;1265;20062;-39
2023/06/30 08:15:19;;;;;;;;;31.67;30.00;;;;;23.18;60.75;100288.28;110295;1265;20144;-38
2023/06/30 08:17:46;;;;;;;;;30.00;30.00;;;;;23.21;60.84;100286.81;110323;1265;21874;-38
2023/06/30 08:20:13;;;;;;;;;34.00;30.50;;;;;23.22;60.92;100285.27;110226;1265;20303;-39
2023/06/30 08:22:41;;;;;;;;;28.00;28.00;;;;;23.24;61.02;100286.69;110222;1259;18994;-39
2023/06/30 08:25:08;;;;;;;;;33.50;33.00;;;;;23.22;61.01;100282.31;110205;1251;20667;-40
2023/06/30 08:27:35;;;;;;;;;30.50;27.50;;;;;23.26;60.87;100281.86;110228;1260;20267;-39
2023/06/30 08:30:03;;;;;;;;;33.00;31.00;;;;;23.29;60.47;100284.86;110239;1265;20954;-37
2023/06/30 08:32:30;;;;;;;;;34.00;33.00;;;;;23.27;60.39;100281.67;110192;1251;20991;-39
2023/06/30 08:34:58;;;;;;;;;30.00;28.00;;;;;23.26;60.26;100286.00;110204;1251;21340;-40
2023/06/30 08:37:25;;;;;;;;;29.67;27.00;;;;;23.26;59.94;100284.08;110194;1265;22744;-39
2023/06/30 08:39:52;;;;;;;;;30.00;28.00;;;;;23.25;59.52;100283.94;110212;1265;20942;-39
2023/06/30 08:42:20;;;;;;;;;30.00;27.00;;;;;23.28;59.01;100287.51;110177;1251;21146;-39
2023/06/30 08:44:49;;;;;;;;;27.50;26.00;;;;;23.29;58.92;100284.14;110197;1265;20326;-39
2023/06/30 08:47:17;;;;;;;;;28.00;26.00;;;;;23.28;58.77;100278.13;110215;1260;20651;-39
2023/06/30 08:49:44;;;;;;;;;30.00;27.00;;;;;23.29;58.41;100274.30;110094;1265;18613;-39
2023/06/30 08:52:11;;;;;;;;;29.50;29.00;;;;;23.26;58.22;100271.36;110248;1265;20394;-39
2023/06/30 08:54:39;;;;;;;;;31.00;30.00;;;;;23.26;58.11;100272.66;110247;1251;20986;-39
2023/06/30 08:57:06;;;;;;;;;24.00;24.00;;;;;23.32;58.25;100278.65;110230;1251;20192;-39
2023/06/30 08:59:33;;;;;;;;;26.00;24.00;;;;;23.41;58.14;100276.32;110280;1251;21430;-39
2023/06/30 09:02:02;;;;;;;;;30.00;28.00;;;;;23.40;57.97;100279.64;110262;1251;22312;-39
2023/06/30 09:04:30;;;;;;;;;26.00;25.00;;;;;23.39;57.98;100276.70;110271;1260;19814;-39
2023/06/30 09:06:57;;;;;;;;;27.00;26.00;;;;;23.45;58.05;100274.23;110229;1249;22719;-38
2023/06/30 09:09:24;;;;;;;;;28.50;26.50;;;;;23.47;57.93;100271.80;110284;1251;20906;-39
2023/06/30 09:11:52;;;;;;;;;30.00;28.00;;;;;23.44;58.05;100270.70;110253;1251;20393;-39
2023/06/30 09:14:19;;;;;;;;;27.00;26.00;;;;;23.46;57.84;100272.72;110271;1251;20422;-39
2023/06/30 09:16:46;;;;;;;;;27.00;26.67;;;;;23.52;58.02;100274.09;110243;1251;21080;-39
2023/06/30 09:19:14;;;;;;;;;31.00;27.00;;;;;23.59;57.86;100271.54;110262;1251;21270;-40
2023/06/30 09:21:41;;;;;;;;;23.00;23.00;;;;;23.64;57.66;100267.58;110209;1265;20291;-38
2023/06/30 09:24:09;;;;;;;;;26.00;24.00;;;;;23.72;57.42;100270.89;110238;1265;21038;-39
2023/06/30 09:26:36;;;;;;;;;24.50;24.00;;;;;23.81;57.38;100268.41;110266;1265;18794;-38
2023/06/30 09:29:03;;;;;;;;;20.50;20.00;;;;;23.89;56.89;100266.15;110277;1265;20558;-40
2023/06/30 09:31:31;;;;;;;;;20.50;19.50;;;;;23.98;56.49;100269.52;110195;1265;19314;-40
2023/06/30 09:33:58;;;;;;;;;20.50;20.00;;;;;24.05;56.26;100267.08;110176;1265;18622;-39
2023/06/30 09:36:25;;;;;;;;;23.00;23.00;;;;;24.11;56.12;100265.35;110194;1250;20417;-40
2023/06/30 09:38:53;;;;;;;;;21.00;20.00;;;;;24.15;56.34;100268.95;110203;1265;22527;-39
2023/06/30 09:41:20;;;;;;;;;21.00;21.00;;;;;24.15;56.43;100267.17;110239;1251;20156;-40
2023/06/30 09:43:48;;;;;;;;;22.00;21.00;;;;;24.14;56.23;100266.70;110269;1265;18711;-40
2023/06/30 09:46:15;;;;;;;;;25.00;22.00;;;;;24.21;56.11;100267.59;110262;1265;22680;-40
2023/06/30 09:48:43;;;;;;;;;20.00;18.00;;;;;24.23;56.16;100270.61;110245;1265;20291;-40
2023/06/30 09:51:12;;;;;;;;;21.50;20.50;;;;;24.21;56.12;100270.92;110268;1265;22876;-40
2023/06/30 09:53:40;;;;;;;;;22.00;20.67;;;;;24.19;56.33;100269.39;110222;1250;20765;-39
2023/06/30 09:56:08;;;;;;;;;20.00;20.00;;;;;24.22;56.28;100269.23;110253;1260;18674;-41
2023/06/30 09:58:35;;;;;;;;;28.00;24.00;;;;;24.32;56.29;100271.59;110273;1251;20204;-40
2023/06/30 10:01:03;;;;;;;;;24.50;21.50;;;;;24.37;56.22;100269.30;110245;1251;22020;-40
2023/06/30 10:03:30;;;;;;;;;21.00;20.00;;;;;24.41;56.49;100271.65;110275;1265;18596;-39
2023/06/30 10:05:58;;;;;;;;;24.00;23.00;;;;;24.41;56.49;100264.10;110285;1265;19984;-39
2023/06/30 10:08:25;;;;;;;;;24.00;24.00;;;;;24.42;56.34;100264.15;110259;1265;19358;-40
2023/06/30 10:10:52;;;;;;;;;21.00;21.00;;;;;24.49;56.45;100260.52;110248;1250;20015;-40
2023/06/30 10:13:20;;;;;;;;;23.67;23.67;;;;;24.48;56.35;100259.83;110232;1249;20250;-39
2023/06/30 10:15:47;;;;;;;;;25.00;25.00;;;;;24.48;56.43;100259.38;110250;1250;22805;-39
2023/06/30 10:18:15;;;;;;;;;22.00;21.00;;;;;24.47;56.39;100259.96;110242;1251;22354;-40
2023/06/30 10:20:42;;;;;;;;;25.00;22.00;;;;;24.48;56.44;100257.15;110197;1250;18748;-39
2023/06/30 10:23:09;;;;;;;;;22.00;21.00;;;;;24.46;56.22;100254.79;110175;1250;20928;-40
2023/06/30 10:25:37;;;;;;;;;19.67;18.00;;;;;24.45;56.20;100258.41;110181;1251;20074;-40
2023/06/30 10:28:04;;;;;;;;;21.00;18.00;;;;;24.48;56.14;100254.70;110241;1250;20144;-40
2023/06/30 10:30:32;;;;;;;;;18.50;18.00;;;;;24.49;55.24;100240.75;110229;1250;20995;-40
2023/06/30 10:32:59;;;;;;;;;18.00;18.00;;;;;24.51;55.13;100243.23;110145;1260;19937;-40
2023/06/30 10:35:26;;;;;;;;;21.00;19.00;;;;;24.58;55.06;100238.87;110252;1251;20008;-40
2023/06/30 10:37:55;;;;;;;;;18.00;18.00;;;;;24.62;54.72;100239.23;110244;1265;19405;-39
2023/06/30 10:40:23;;;;;;;;;21.00;20.00;;;;;24.63;54.42;100235.16;110241;1251;20048;-39
2023/06/30 10:42:52;;;;;;;;;19.00;19.00;;;;;24.64;54.82;100228.19;110206;1251;21326;-40
2023/06/30 10:45:19;;;;;;;;;18.00;17.00;;;;;24.62;54.89;100225.27;110202;1250;20704;-38
2023/06/30 10:47:46;;;;;;;;;18.50;17.50;;;;;24.64;55.03;100225.16;110205;1260;20056;-39
2023/06/30 10:50:14;;;;;;;;;18.50;17.00;;;;;24.70;54.99;100227.55;110248;1265;19011;-40
2023/06/30 10:52:41;;;;;;;;;17.00;17.00;;;;;24.68;54.78;100229.23;110265;1257;22504;-40
2023/06/30 10:55:09;;;;;;;;;21.00;18.00;;;;;24.69;54.77;100225.10;110171;1251;20065;-39
2023/06/30 10:57:36;;;;;;;;;18.00;17.00;;;;;24.63;54.75;100224.65;110174;1265;19007;-39
2023/06/30 11:00:03;;;;;;;;;19.00;18.00;;;;;24.60;54.86;100220.06;110188;1251;21140;-40
2023/06/30 11:02:31;;;;;;;;;19.00;18.00;;;;;24.65;54.85;100222.80;110236;1265;18600;-39